createdAt,value
2023-05-01T00:02:59.151Z,10.05
2023-05-01T00:07:59.986Z,10.16
2023-05-01T00:13:00.754Z,10.18
2023-05-01T00:18:01.618Z,10.31
2023-05-01T00:23:02.534Z,10.29
2023-05-01T00:28:03.440Z,10.30
2023-05-01T00:33:04.251Z,10.32
2023-05-01T00:38:05.166Z,10.37
2023-05-01T00:43:06.155Z,10.06
2023-05-01T00:48:08.618Z,10.02
2023-05-01T00:53:10.404Z,10.02
2023-05-01T00:58:12.389Z,9.97
2023-05-01T01:03:13.229Z,9.87
2023-05-01T01:08:33.151Z,9.77
2023-05-01T01:14:14.820Z,9.79
2023-05-01T01:20:13.219Z,9.74
2023-05-01T01:28:23.926Z,9.80
2023-05-01T01:33:54.072Z,9.72
2023-05-01T01:39:09.796Z,9.75
2023-05-01T01:44:22.420Z,9.63
2023-05-01T01:49:27.056Z,9.52
2023-05-01T01:54:35.667Z,9.45
2023-05-01T01:59:36.631Z,9.42
2023-05-01T02:04:40.538Z,9.47
2023-05-01T02:09:43.131Z,9.43
2023-05-01T02:14:45.424Z,9.47
2023-05-01T02:19:46.908Z,9.34
2023-05-01T02:24:48.672Z,9.26
2023-05-01T02:29:53.674Z,9.29
2023-05-01T02:34:54.575Z,9.38
2023-05-01T02:39:56.641Z,9.19
2023-05-01T02:45:01.670Z,9.08
2023-05-01T02:50:04.840Z,9.14
2023-05-01T02:55:07.638Z,8.92
2023-05-01T03:00:12.924Z,8.81
2023-05-01T03:05:14.145Z,8.83
2023-05-01T03:10:15.047Z,8.70
2023-05-01T03:15:17.793Z,8.67
2023-05-01T03:20:18.591Z,8.72
2023-05-01T03:25:19.379Z,8.69
2023-05-01T03:30:21.753Z,8.67
2023-05-01T03:35:22.699Z,8.74
2023-05-01T03:40:23.914Z,8.76
2023-05-01T03:45:56.593Z,8.71
2023-05-01T03:50:57.466Z,8.59
2023-05-01T03:55:58.275Z,8.67
2023-05-01T04:01:00.110Z,8.70
2023-05-01T04:06:01.839Z,8.81
2023-05-01T04:11:02.660Z,8.75
2023-05-01T04:16:05.723Z,8.74
2023-05-01T04:21:06.723Z,8.68
2023-05-01T04:26:07.601Z,8.51
2023-05-01T04:31:09.124Z,8.36
2023-05-01T04:36:10.006Z,8.48
2023-05-01T04:41:10.895Z,8.44
2023-05-01T04:46:11.922Z,8.72
2023-05-01T04:51:12.838Z,8.68
2023-05-01T04:56:13.906Z,8.86
2023-05-01T05:01:15.525Z,9.06
2023-05-01T05:06:16.434Z,9.07
2023-05-01T05:11:20.362Z,9.15
2023-05-01T05:16:44.532Z,9.21
2023-05-01T05:21:45.416Z,9.37
2023-05-01T05:26:46.502Z,9.28
2023-05-01T05:31:47.480Z,9.41
2023-05-01T05:36:49.144Z,9.46
2023-05-01T05:41:53.339Z,9.46
2023-05-01T05:46:54.801Z,9.51
2023-05-01T05:52:02.282Z,9.45
2023-05-01T05:57:03.451Z,9.55
2023-05-01T06:02:06.360Z,9.66
2023-05-01T06:07:07.726Z,9.81
2023-05-01T06:12:08.571Z,9.68
2023-05-01T06:17:09.823Z,9.78
2023-05-01T06:22:11.370Z,9.87
2023-05-01T06:27:17.495Z,10.02
2023-05-01T06:32:18.475Z,10.00
2023-05-01T06:37:19.561Z,10.18
2023-05-01T06:42:20.903Z,10.42
2023-05-01T06:47:21.803Z,10.32
2023-05-01T06:52:22.629Z,10.37
2023-05-01T06:57:23.364Z,10.63
2023-05-01T07:02:25.162Z,10.76
2023-05-01T07:07:25.957Z,10.86
2023-05-01T07:12:26.821Z,11.19
2023-05-01T07:17:28.757Z,11.40
2023-05-01T07:22:29.919Z,11.37
2023-05-01T07:27:30.644Z,11.26
2023-05-01T07:32:32.283Z,11.30
2023-05-01T07:37:33.162Z,11.66
2023-05-01T07:42:33.959Z,11.76
2023-05-01T07:47:34.778Z,12.10
2023-05-01T07:52:36.252Z,12.34
2023-05-01T07:57:37.834Z,12.29
2023-05-01T08:02:40.092Z,12.22
2023-05-01T08:07:40.920Z,12.48
2023-05-01T08:12:41.745Z,12.58
2023-05-01T08:17:42.575Z,12.76
2023-05-01T08:22:43.579Z,12.99
2023-05-01T08:27:44.398Z,13.08
2023-05-01T08:32:45.311Z,13.06
2023-05-01T08:37:46.048Z,13.13
2023-05-01T08:42:48.411Z,13.33
2023-05-01T08:47:51.514Z,13.44
2023-05-01T08:52:53.408Z,13.47
2023-05-01T08:57:56.967Z,13.67
2023-05-01T09:03:02.325Z,13.51
2023-05-01T09:08:03.400Z,13.51
2023-05-01T09:13:06.349Z,13.48
2023-05-01T09:18:08.301Z,14.05
2023-05-01T09:23:09.248Z,14.14
2023-05-01T09:28:10.076Z,13.96
2023-05-01T09:33:13.237Z,13.94
2023-05-01T09:38:22.539Z,13.65
2023-05-01T09:43:28.212Z,13.58
2023-05-01T09:48:30.658Z,14.05
2023-05-01T09:53:37.478Z,14.23
2023-05-01T09:58:38.448Z,14.11
2023-05-01T10:03:40.405Z,14.52
2023-05-01T10:08:45.960Z,14.52
2023-05-01T10:14:05.761Z,14.48
2023-05-01T10:19:07.001Z,14.63
2023-05-01T10:24:09.416Z,14.62
2023-05-01T10:29:11.847Z,14.81
2023-05-01T10:34:17.763Z,14.57
2023-05-01T10:39:35.478Z,14.77
2023-05-01T10:44:36.953Z,14.76
2023-05-01T10:50:04.050Z,14.91
2023-05-01T10:55:33.787Z,14.88
2023-05-01T11:00:34.616Z,14.94
2023-05-01T11:06:27.547Z,14.92
2023-05-01T11:11:49.909Z,15.17
2023-05-01T11:16:50.795Z,15.02
2023-05-01T11:21:53.453Z,15.36
2023-05-01T11:26:54.906Z,15.46
2023-05-01T11:31:55.817Z,15.91
2023-05-01T11:36:56.901Z,16.29
2023-05-01T11:42:09.938Z,17.05
2023-05-01T11:47:10.822Z,16.55
2023-05-01T11:52:12.102Z,16.56
2023-05-01T11:57:13.375Z,16.48
2023-05-01T12:02:20.352Z,15.83
2023-05-01T12:07:22.567Z,15.99
2023-05-01T12:12:23.467Z,15.44
2023-05-01T12:17:24.672Z,15.75
2023-05-01T12:22:25.703Z,15.84
2023-05-01T12:27:26.634Z,15.93
2023-05-01T12:32:32.172Z,16.02
2023-05-01T12:37:33.226Z,15.94
2023-05-01T12:42:34.133Z,15.71
2023-05-01T12:47:38.480Z,15.70
2023-05-01T12:52:39.337Z,15.76
2023-05-01T12:57:54.151Z,15.67
2023-05-01T13:03:02.763Z,15.74
2023-05-01T13:08:03.963Z,15.76
2023-05-01T13:13:04.818Z,16.10
2023-05-01T13:18:05.740Z,16.16
2023-05-01T13:23:12.588Z,16.44
2023-05-01T13:28:18.837Z,17.23
2023-05-01T13:33:19.911Z,17.77
2023-05-01T13:38:23.794Z,18.24
2023-05-01T13:43:24.650Z,18.50
2023-05-01T13:48:25.463Z,18.51
2023-05-01T13:53:26.280Z,17.85
2023-05-01T13:58:31.775Z,16.63
2023-05-01T14:03:39.989Z,16.64
2023-05-01T14:08:42.346Z,16.74
2023-05-01T14:13:48.733Z,16.73
2023-05-01T14:18:53.668Z,17.00
2023-05-01T14:23:56.356Z,17.07
2023-05-01T14:28:57.160Z,16.80
2023-05-01T14:34:06.174Z,16.62
2023-05-01T14:39:07.706Z,16.53
2023-05-01T14:44:17.239Z,16.30
2023-05-01T14:49:20.314Z,16.34
2023-05-01T14:54:21.315Z,16.22
2023-05-01T14:59:23.796Z,15.87
2023-05-01T15:04:24.639Z,15.89
2023-05-01T15:09:25.570Z,15.68
2023-05-01T15:14:26.474Z,15.80
2023-05-01T15:19:27.259Z,15.81
2023-05-01T15:24:27.990Z,15.87
2023-05-01T15:29:28.816Z,15.79
2023-05-01T15:34:29.710Z,15.61
2023-05-01T15:39:32.480Z,15.68
2023-05-01T15:44:33.210Z,15.59
2023-05-01T15:49:33.986Z,15.73
2023-05-01T15:54:34.771Z,15.76
2023-05-01T15:59:40.999Z,16.00
2023-05-01T16:04:45.649Z,15.92
2023-05-01T16:09:47.136Z,16.08
2023-05-01T16:14:48.139Z,16.21
2023-05-01T16:19:49.075Z,16.27
2023-05-01T16:24:50.114Z,16.26
2023-05-01T16:29:51.069Z,16.03
2023-05-01T16:34:51.866Z,15.89
2023-05-01T16:39:52.928Z,15.76
2023-05-01T16:44:55.671Z,15.66
2023-05-01T16:49:59.283Z,15.49
2023-05-01T16:55:01.349Z,15.39
2023-05-01T17:00:04.871Z,15.20
2023-05-01T17:05:06.740Z,14.96
2023-05-01T17:10:08.630Z,14.76
2023-05-01T17:15:09.705Z,14.61
2023-05-01T17:20:11.280Z,14.31
2023-05-01T17:25:12.417Z,14.02
2023-05-01T17:30:13.223Z,13.51
2023-05-01T17:35:14.872Z,13.26
2023-05-01T17:40:15.901Z,12.88
2023-05-01T17:45:16.852Z,12.56
2023-05-01T17:50:17.772Z,12.28
2023-05-01T17:55:18.742Z,12.21
2023-05-01T18:00:20.584Z,12.02
2023-05-01T18:05:21.831Z,11.76
2023-05-01T18:10:22.731Z,11.67
2023-05-01T18:15:23.692Z,11.70
2023-05-01T18:20:24.745Z,11.78
2023-05-01T18:25:25.776Z,11.72
2023-05-01T18:30:26.663Z,11.68
2023-05-01T18:35:27.400Z,11.69
2023-05-01T18:40:28.328Z,11.67
2023-05-01T18:45:29.971Z,11.73
2023-05-01T18:50:31.159Z,11.71
2023-05-01T18:55:32.315Z,11.65
2023-05-01T19:00:33.195Z,11.54
2023-05-01T19:05:34.012Z,11.47
2023-05-01T19:10:37.305Z,11.19
2023-05-01T19:15:38.157Z,11.07
2023-05-01T19:20:39.016Z,11.02
2023-05-01T19:25:39.829Z,11.08
2023-05-01T19:30:40.620Z,11.01
2023-05-01T19:35:41.374Z,10.97
2023-05-01T19:40:44.082Z,10.84
2023-05-01T19:45:44.855Z,10.96
2023-05-01T19:50:50.254Z,10.97
2023-05-01T19:55:51.002Z,11.07
2023-05-01T20:00:57.006Z,10.98
2023-05-01T20:05:57.908Z,10.89
2023-05-01T20:10:59.988Z,10.89
2023-05-01T20:16:00.998Z,10.82
2023-05-01T20:21:01.856Z,10.66
2023-05-01T20:26:03.512Z,10.73
2023-05-01T20:31:04.363Z,10.81
2023-05-01T20:36:06.140Z,10.71
2023-05-01T20:41:07.058Z,10.66
2023-05-01T20:46:07.891Z,10.71
2023-05-01T20:51:08.926Z,10.50
2023-05-01T20:56:09.662Z,10.26
2023-05-01T21:01:11.309Z,10.29
2023-05-01T21:06:15.215Z,10.32
2023-05-01T21:11:16.337Z,10.26
2023-05-01T21:16:18.826Z,10.24
2023-05-01T21:21:19.980Z,10.23
2023-05-01T21:26:20.792Z,10.10
2023-05-01T21:31:29.395Z,10.00
2023-05-01T21:36:33.022Z,9.97
2023-05-01T21:41:34.567Z,10.01
2023-05-01T21:46:36.290Z,9.93
2023-05-01T21:51:38.480Z,9.85
2023-05-01T21:56:39.276Z,9.84
2023-05-01T22:01:40.544Z,9.79
2023-05-01T22:06:41.523Z,9.78
2023-05-01T22:11:42.582Z,9.59
2023-05-01T22:16:43.464Z,9.48
2023-05-01T22:21:44.321Z,9.38
2023-05-01T22:26:45.452Z,9.33
2023-05-01T22:31:46.319Z,9.31
2023-05-01T22:36:47.124Z,9.24
2023-05-01T22:41:48.073Z,9.38
2023-05-01T22:46:49.131Z,9.40
2023-05-01T22:51:50.288Z,9.34
2023-05-01T22:56:51.083Z,9.29
2023-05-01T23:01:52.291Z,9.32
2023-05-01T23:06:53.151Z,9.17
2023-05-01T23:11:54.098Z,9.16
2023-05-01T23:16:54.815Z,9.10
2023-05-01T23:22:10.213Z,9.08
2023-05-01T23:27:12.693Z,9.00
2023-05-01T23:32:21.089Z,8.96
2023-05-01T23:37:21.932Z,9.02
2023-05-01T23:42:23.043Z,8.96
2023-05-01T23:47:23.975Z,8.88
2023-05-01T23:52:25.217Z,8.88
2023-05-01T23:57:26.279Z,8.86
